Time;durP1;ratioP1;P1;durP2;ratioP2;P2;SDS_P1;SDS_P2;PMS_P1;PMS_P2;Temp;Humidity;BMP_temperature;BMP_pressure;BME280_temperature;BME280_humidity;BME280_pressure;Samples;Min_cycle;Max_cycle;Signal;HPM_P1;HPM_P2
2022/07/30 00:01:50;;;;;;;12.25;2.75;;;;;;;17.71;77.60;101833.94;5002940;28;20453;-79
2022/07/30 00:04:16;;;;;;;8.18;2.38;;;;;;;17.71;77.24;101831.22;5011761;28;20088;-80
2022/07/30 00:06:41;;;;;;;9.32;2.88;;;;;;;17.69;77.25;101827.88;5011912;28;20394;-80
2022/07/30 00:09:06;;;;;;;9.48;2.60;;;;;;;17.65;77.66;101821.16;5011542;28;20065;-82
2022/07/30 00:11:32;;;;;;;9.13;2.85;;;;;;;17.63;77.78;101827.84;5011923;28;20552;-80
2022/07/30 00:13:57;;;;;;;7.82;2.38;;;;;;;17.61;77.85;101822.59;5012448;28;20424;-81
2022/07/30 00:16:22;;;;;;;16.58;5.70;;;;;;;17.63;77.77;101822.41;5011853;28;20056;-80
2022/07/30 00:18:48;;;;;;;14.98;7.13;;;;;;;17.59;77.45;101818.41;5011784;28;20024;-81
2022/07/30 00:21:13;;;;;;;10.18;4.63;;;;;;;17.57;77.54;101813.19;5011878;28;20026;-81
2022/07/30 00:23:39;;;;;;;12.65;4.55;;;;;;;17.59;77.77;101815.69;5011291;28;20345;-81
2022/07/30 00:26:04;;;;;;;8.07;3.20;;;;;;;17.55;77.66;101818.00;5011501;28;20500;-81
2022/07/30 00:28:30;;;;;;;14.10;4.30;;;;;;;17.53;77.60;101814.63;5011280;28;20108;-81
2022/07/30 00:30:55;;;;;;;12.30;4.28;;;;;;;17.47;78.02;101808.13;5011125;28;20030;-81
2022/07/30 00:33:20;;;;;;;12.93;3.42;;;;;;;17.45;77.95;101806.63;4993322;28;20033;-81
2022/07/30 00:35:46;;;;;;;6.63;2.75;;;;;;;17.42;78.36;101807.06;5011495;28;20507;-81
2022/07/30 00:38:11;;;;;;;10.73;2.65;;;;;;;17.41;78.44;101803.50;4993751;28;20022;-81
2022/07/30 00:40:37;;;;;;;5.85;2.83;;;;;;;17.39;78.19;101797.41;4993660;28;20030;-81
2022/07/30 00:43:02;;;;;;;14.48;4.70;;;;;;;17.38;78.19;101800.31;4994745;28;20022;-82
2022/07/30 00:45:28;;;;;;;11.70;3.67;;;;;;;17.32;78.54;101799.25;4993732;28;20064;-82
2022/07/30 00:47:53;;;;;;;15.60;5.78;;;;;;;17.26;78.54;101798.19;5011898;28;20398;-83
2022/07/30 00:50:18;;;;;;;9.98;4.88;;;;;;;17.24;79.20;101802.16;5011580;28;20042;-83
2022/07/30 00:52:44;;;;;;;8.45;4.60;;;;;;;17.23;79.42;101803.22;5011505;28;20358;-81
2022/07/30 00:55:12;;;;;;;11.57;4.32;;;;;;;17.21;79.16;101797.97;5011362;28;20390;-81
2022/07/30 00:57:37;;;;;;;12.13;4.93;;;;;;;17.22;79.15;101805.09;5011776;28;20061;-81
2022/07/30 01:00:05;;;;;;;12.82;4.10;;;;;;;17.21;79.02;101797.97;5012273;28;20052;-81
2022/07/30 01:02:31;;;;;;;12.38;4.30;;;;;;;17.21;79.10;101803.41;5021165;28;20025;-80
2022/07/30 01:04:56;;;;;;;8.45;3.42;;;;;;;17.20;78.86;101798.19;5032387;28;20077;-79
2022/07/30 01:07:22;;;;;;;10.65;3.40;;;;;;;17.19;79.09;101799.22;5015501;28;20111;-81
2022/07/30 01:09:47;;;;;;;12.90;4.00;;;;;;;17.19;79.00;101800.03;5000725;28;20034;-81
2022/07/30 01:12:16;;;;;;;14.73;3.55;;;;;;;17.18;79.11;101800.25;4994489;28;20469;-80
2022/07/30 01:14:41;;;;;;;10.30;3.50;;;;;;;17.16;79.24;101799.63;4996080;28;20030;-81
2022/07/30 01:17:07;;;;;;;10.50;3.25;;;;;;;17.12;79.16;101799.19;5013708;28;20073;-81
2022/07/30 01:19:51;;;;;;;6.55;2.97;;;;;;;17.12;79.12;101793.75;4993627;28;20390;-81
2022/07/30 01:22:23;;;;;;;12.40;3.00;;;;;;;17.08;79.32;101792.47;4995624;28;20498;-81
2022/07/30 01:25:08;;;;;;;6.28;2.85;;;;;;;17.08;78.93;101798.75;4993501;28;20387;-81
2022/07/30 01:27:39;;;;;;;10.80;3.53;;;;;;;17.04;79.28;101792.03;5010940;28;20026;-79
2022/07/30 01:30:06;;;;;;;6.25;2.75;;;;;;;17.02;79.30;101796.00;4993509;28;20185;-81
2022/07/30 01:32:33;;;;;;;12.98;2.78;;;;;;;16.97;79.89;101788.44;4993033;28;20088;-82
2022/07/30 01:34:59;;;;;;;;;;;;;;;16.98;80.13;101792.00;5010683;28;20124;-80
2022/07/30 01:37:24;;;;;;;9.88;3.17;;;;;;;17.01;79.92;101791.59;5010720;28;20093;-81
2022/07/30 01:39:50;;;;;;;8.32;2.97;;;;;;;17.02;79.42;101793.28;4992659;28;20355;-81
2022/07/30 01:42:17;;;;;;;13.57;2.85;;;;;;;16.98;79.13;101786.56;4992649;28;20041;-81
2022/07/30 01:44:43;;;;;;;9.88;2.90;;;;;;;16.94;79.54;101791.56;5012226;28;20029;-82
2022/07/30 01:47:10;;;;;;;8.80;2.72;;;;;;;16.93;79.95;101781.75;4977816;28;20386;-81
2022/07/30 01:49:36;;;;;;;7.93;2.85;;;;;;;16.95;80.05;101786.97;4978262;28;20509;-81
2022/07/30 01:52:03;;;;;;;8.85;2.78;;;;;;;16.94;79.85;101785.28;4994334;28;20049;-81
2022/07/30 01:54:30;;;;;;;7.38;2.65;;;;;;;16.91;79.76;101785.69;5014625;28;20034;-83
2022/07/30 01:56:58;;;;;;;7.10;2.67;;;;;;;16.92;79.71;101787.38;4998480;28;20026;-81
2022/07/30 01:59:24;;;;;;;10.00;2.80;;;;;;;16.92;79.47;101792.81;4997255;28;20543;-82
2022/07/30 02:01:49;;;;;;;18.08;2.88;;;;;;;16.92;79.57;101788.19;4996663;28;20033;-82
2022/07/30 02:04:15;;;;;;;4.78;2.72;;;;;;;16.89;79.14;101791.31;5015153;28;20030;-81
2022/07/30 02:06:46;;;;;;;8.15;2.50;;;;;;;16.87;79.44;101793.41;5014883;28;20038;-81
2022/07/30 02:09:14;;;;;;;7.63;2.60;;;;;;;16.83;79.47;101801.13;5014166;28;20034;-81
2022/07/30 02:14:31;;;;;;;5.60;2.65;;;;;;;16.83;79.76;101805.72;4994536;28;20382;-81
2022/07/30 02:16:57;;;;;;;8.63;2.70;;;;;;;16.81;80.00;101808.63;5001763;28;20037;-81
2022/07/30 02:19:25;;;;;;;11.77;2.95;;;;;;;16.81;79.80;101799.66;4997218;28;20496;-82
2022/07/30 02:22:04;;;;;;;12.85;3.47;;;;;;;16.82;79.83;101806.75;5014207;28;20494;-81
2022/07/30 02:24:31;;;;;;;7.93;2.63;;;;;;;16.79;79.64;101793.56;4997021;28;20485;-82
2022/07/30 02:27:01;;;;;;;8.35;2.63;;;;;;;16.78;79.93;101800.88;4996689;28;20030;-80
2022/07/30 02:29:26;;;;;;;11.43;3.10;;;;;;;16.76;79.73;101802.09;4999507;28;20026;-79
2022/07/30 02:31:53;;;;;;;7.53;2.60;;;;;;;16.75;79.96;101793.09;5015200;28;20052;-81
2022/07/30 02:34:20;;;;;;;5.28;2.70;;;;;;;16.74;80.16;101802.28;5060969;22;20516;-81
2022/07/30 02:36:46;;;;;;;8.65;2.88;;;;;;;16.75;80.07;101803.16;5034459;28;20108;-80
2022/07/30 02:39:13;;;;;;;7.28;3.47;;;;;;;16.77;80.15;101796.50;5032325;28;20148;-83
2022/07/30 02:41:40;;;;;;;10.37;3.37;;;;;;;16.80;80.09;101796.09;5032706;28;20029;-81
2022/07/30 02:44:05;;;;;;;8.53;2.97;;;;;;;16.80;79.50;101789.81;5016261;28;20129;-81
2022/07/30 02:46:31;;;;;;;8.60;3.13;;;;;;;16.79;79.89;101799.84;5033071;28;20048;-81
2022/07/30 02:48:57;;;;;;;15.07;3.75;;;;;;;16.78;79.90;101795.44;5033276;28;20435;-82
2022/07/30 02:51:24;;;;;;;11.27;3.08;;;;;;;16.79;79.59;101797.13;5034029;28;20052;-82
2022/07/30 02:53:51;;;;;;;7.33;2.90;;;;;;;16.76;79.83;101783.91;5034193;28;20113;-82
2022/07/30 02:56:17;;;;;;;9.75;3.35;;;;;;;16.75;79.90;101778.69;5034774;28;20834;-81
2022/07/30 02:58:47;;;;;;;8.20;3.67;;;;;;;16.72;79.81;101782.63;5033886;28;20052;-81
2022/07/30 03:01:14;;;;;;;11.52;3.63;;;;;;;16.71;79.51;101786.38;5037210;28;20036;-82
2022/07/30 03:03:41;;;;;;;9.20;3.70;;;;;;;16.71;79.82;101789.09;5036145;28;20034;-83
2022/07/30 03:06:08;;;;;;;7.95;3.42;;;;;;;16.73;79.79;101794.34;5034706;28;20025;-82
2022/07/30 03:08:34;;;;;;;8.00;3.00;;;;;;;16.72;79.68;101793.50;5015197;28;20030;-81
2022/07/30 03:10:59;;;;;;;7.03;2.90;;;;;;;16.73;79.60;101795.19;5030639;28;20354;-81
2022/07/30 03:13:25;;;;;;;11.80;2.92;;;;;;;16.71;79.63;101797.25;5040363;28;20052;-82
2022/07/30 03:15:51;;;;;;;9.68;3.25;;;;;;;16.70;79.51;101795.56;5043551;28;20029;-81
2022/07/30 03:18:18;;;;;;;6.25;2.78;;;;;;;16.70;79.54;101795.56;5051184;28;20025;-83
2022/07/30 03:20:55;;;;;;;7.97;3.05;;;;;;;16.68;79.48;101784.88;5052232;28;20033;-82
2022/07/30 03:23:21;;;;;;;8.18;2.85;;;;;;;16.68;79.05;101801.19;5051271;28;20440;-82
2022/07/30 03:25:51;;;;;;;7.25;2.55;;;;;;;16.65;79.20;101801.59;5051619;28;20059;-82
2022/07/30 03:28:17;;;;;;;10.23;2.67;;;;;;;16.64;78.85;101801.78;5040130;28;20021;-82
2022/07/30 03:30:43;;;;;;;7.95;2.70;;;;;;;16.63;79.17;101791.97;5035032;28;20025;-82
2022/07/30 03:33:08;;;;;;;9.18;2.75;;;;;;;16.65;78.93;101798.88;5036507;28;20041;-82
2022/07/30 03:35:34;;;;;;;10.98;2.50;;;;;;;16.69;78.61;101793.88;5034082;28;20040;-82
2022/07/30 03:38:00;;;;;;;8.77;2.83;;;;;;;16.67;78.55;101801.41;5036174;28;20033;-82
2022/07/30 03:40:25;;;;;;;6.32;2.45;;;;;;;16.66;78.48;101797.00;5016622;28;20025;-81
2022/07/30 03:42:51;;;;;;;9.10;2.88;;;;;;;16.65;78.42;101795.34;5032964;28;20084;-81
2022/07/30 03:45:17;;;;;;;6.97;2.97;;;;;;;16.68;78.05;101803.91;5032921;28;20018;-82
2022/07/30 03:47:43;;;;;;;8.57;2.50;;;;;;;16.66;77.92;101802.44;5034099;28;20390;-83
2022/07/30 03:50:09;;;;;;;12.70;3.00;;;;;;;16.67;77.88;101801.41;5040050;28;20036;-82
2022/07/30 03:52:37;;;;;;;6.25;2.20;;;;;;;16.67;77.97;101795.97;5034015;28;20022;-80
2022/07/30 03:55:03;;;;;;;11.25;2.22;;;;;;;16.63;78.09;101800.97;5036067;28;20513;-81
2022/07/30 03:57:29;;;;;;;3.47;2.38;;;;;;;16.62;78.15;101806.59;5041830;28;20397;-81
2022/07/30 03:59:54;;;;;;;10.20;2.60;;;;;;;16.63;78.28;101800.13;5041999;28;20018;-81
2022/07/30 04:02:20;;;;;;;4.88;2.30;;;;;;;16.65;78.13;101804.31;5021619;28;20175;-81
2022/07/30 04:04:45;;;;;;;4.90;2.50;;;;;;;16.66;78.28;101808.72;5032516;28;20575;-84
2022/07/30 04:07:10;;;;;;;5.80;2.75;;;;;;;16.70;77.95;101806.44;5034963;28;20080;-83
2022/07/30 04:09:36;;;;;;;9.80;2.47;;;;;;;16.72;77.70;101806.22;5037475;28;20030;-82
2022/07/30 04:12:02;;;;;;;5.15;2.38;;;;;;;16.73;77.57;101811.47;5033148;28;20036;-82
2022/07/30 04:14:38;;;;;;;12.02;2.30;;;;;;;16.75;77.28;101820.28;5033373;28;20064;-82
2022/07/30 04:17:16;;;;;;;3.25;1.58;;;;;;;16.78;77.10;101819.09;5034158;28;20452;-82
2022/07/30 04:19:42;;;;;;;;;;;;;;;16.83;77.22;101811.16;5032747;28;20390;-81
2022/07/30 04:22:11;;;;;;;3.58;2.00;;;;;;;16.84;76.52;101812.84;5032796;28;19909;-81
2022/07/30 04:24:37;;;;;;;10.35;2.00;;;;;;;16.84;76.56;101812.84;5030912;28;20056;-82
2022/07/30 04:27:03;;;;;;;5.78;1.83;;;;;;;16.86;76.15;101817.03;5033044;28;20108;-81
2022/07/30 04:29:28;;;;;;;5.07;2.10;;;;;;;16.88;76.12;101812.25;5031773;28;20097;-81
2022/07/30 04:31:54;;;;;;;9.13;2.10;;;;;;;16.94;75.72;101816.03;5030923;28;20085;-83
2022/07/30 04:34:19;;;;;;;3.83;1.83;;;;;;;16.97;75.44;101802.03;5031293;28;20052;-80
2022/07/30 04:36:44;;;;;;;7.68;2.30;;;;;;;16.98;75.33;101805.59;5030668;28;20147;-81
2022/07/30 04:39:10;;;;;;;2.78;1.75;;;;;;;17.02;75.40;101809.59;5032453;28;20065;-80
2022/07/30 04:41:36;;;;;;;8.85;2.05;;;;;;;17.04;75.13;101813.78;5032191;28;20075;-80
2022/07/30 04:44:01;;;;;;;4.95;1.90;;;;;;;17.04;74.92;101815.69;5014498;28;20360;-80
2022/07/30 04:46:27;;;;;;;3.88;1.80;;;;;;;17.02;75.14;101815.88;5033062;28;20363;-81
2022/07/30 04:48:52;;;;;;;2.83;1.92;;;;;;;17.06;75.17;101819.03;5032679;28;20026;-81
2022/07/30 04:51:24;;;;;;;7.00;2.20;;;;;;;17.09;74.85;101815.91;5034206;28;20033;-81
2022/07/30 04:53:50;;;;;;;6.72;2.28;;;;;;;17.14;74.34;101813.44;5018579;28;20528;-81
2022/07/30 04:56:16;;;;;;;4.05;1.73;;;;;;;17.17;73.96;101817.59;5038878;28;20021;-81
2022/07/30 04:58:45;;;;;;;6.35;1.92;;;;;;;17.13;73.70;101819.91;5022544;28;20052;-81
2022/07/30 05:01:11;;;;;;;9.48;2.10;;;;;;;17.15;73.54;101817.81;5044184;28;20052;-81
2022/07/30 05:03:37;;;;;;;6.63;1.88;;;;;;;17.18;73.78;101822.03;5047755;28;20085;-81
2022/07/30 05:06:04;;;;;;;4.65;1.80;;;;;;;17.28;73.89;101820.59;5034496;28;20021;-82
2022/07/30 05:08:29;;;;;;;5.70;1.70;;;;;;;17.38;73.65;101825.69;5045994;28;20036;-81
2022/07/30 05:10:55;;;;;;;3.78;1.95;;;;;;;17.47;73.07;101820.88;5040217;28;20025;-80
2022/07/30 05:13:20;;;;;;;6.80;2.25;;;;;;;17.56;73.03;101825.09;5037029;28;20025;-82
2022/07/30 05:15:45;;;;;;;3.90;1.80;;;;;;;17.64;72.56;101827.66;5041565;28;20037;-82
2022/07/30 05:18:11;;;;;;;7.20;1.95;;;;;;;17.74;72.80;101833.53;5046613;28;20036;-84
2022/07/30 05:20:37;;;;;;;7.00;1.95;;;;;;;17.87;72.40;101834.66;5048711;28;20040;-84
2022/07/30 05:23:04;;;;;;;9.23;1.85;;;;;;;17.93;71.45;101842.84;5043985;28;20041;-84
2022/07/30 05:25:30;;;;;;;7.50;1.88;;;;;;;17.99;71.47;101844.72;5048006;28;20005;-85
2022/07/30 05:27:56;;;;;;;5.65;1.70;;;;;;;18.06;71.35;101844.75;5053411;28;20081;-84
2022/07/30 05:30:22;;;;;;;5.82;1.45;;;;;;;18.13;70.84;101842.88;5056679;28;20014;-87
2022/07/30 05:32:48;;;;;;;7.28;2.10;;;;;;;18.20;70.89;101851.88;5054107;28;20035;-86
2022/07/30 05:35:13;;;;;;;4.63;1.60;;;;;;;18.30;70.45;101837.88;5053530;28;20080;-86
2022/07/30 05:37:39;;;;;;;10.40;1.92;;;;;;;18.38;70.23;101847.72;5038049;28;20036;-85
2022/07/30 05:40:05;;;;;;;5.20;1.85;;;;;;;18.41;69.95;101850.03;5042083;28;20079;-85
2022/07/30 05:42:30;;;;;;;5.38;1.50;;;;;;;18.47;69.39;101849.19;5035891;28;20021;-85
2022/07/30 05:44:56;;;;;;;5.35;1.65;;;;;;;18.53;69.15;101853.78;5023924;28;20496;-82
2022/07/30 05:47:21;;;;;;;5.20;1.70;;;;;;;18.59;68.93;101855.69;5015254;28;20022;-84
2022/07/30 05:49:47;;;;;;;6.40;1.75;;;;;;;18.64;69.12;101849.56;5032452;28;20049;-84
2022/07/30 05:52:12;;;;;;;3.13;1.45;;;;;;;18.70;69.24;101853.38;5034179;28;20026;-86
2022/07/30 05:54:38;;;;;;;8.40;1.95;;;;;;;18.75;68.39;101861.78;5036178;28;20129;-85
2022/07/30 05:57:03;;;;;;;6.75;1.60;;;;;;;18.77;67.59;101846.91;5032450;28;20029;-83
2022/07/30 05:59:29;;;;;;;5.75;1.50;;;;;;;18.82;68.08;101857.16;5033862;28;20173;-82
2022/07/30 06:01:54;;;;;;;7.03;1.70;;;;;;;18.93;68.32;101861.13;5020111;28;20026;-83
2022/07/30 06:04:19;;;;;;;7.68;1.35;;;;;;;19.05;67.72;101865.72;5010273;28;20421;-82
2022/07/30 06:06:45;;;;;;;7.85;1.67;;;;;;;19.21;67.24;101864.41;5016950;28;20021;-82
2022/07/30 06:09:10;;;;;;;5.25;1.88;;;;;;;19.50;66.26;101868.50;5032803;28;20116;-84
2022/07/30 06:11:36;;;;;;;7.28;1.90;;;;;;;19.93;66.28;101861.59;5032773;28;20026;-84
2022/07/30 06:14:01;;;;;;;5.25;1.40;;;;;;;20.45;63.79;101872.38;5033217;28;20043;-84
2022/07/30 06:16:27;;;;;;;9.77;1.60;;;;;;;20.95;61.38;101870.47;5036806;28;20029;-83
2022/07/30 06:18:52;;;;;;;6.03;1.30;;;;;;;21.52;59.66;101866.72;5034627;28;20021;-83
2022/07/30 06:21:18;;;;;;;6.30;1.40;;;;;;;22.24;56.86;101872.28;5023783;28;20034;-83
2022/07/30 06:23:43;;;;;;;4.10;1.13;;;;;;;22.99;54.59;101858.78;5015317;28;20394;-83
2022/07/30 06:26:08;;;;;;;7.28;1.10;;;;;;;23.69;52.54;101862.41;5033320;28;20052;-82
2022/07/30 06:28:34;;;;;;;8.75;1.83;;;;;;;24.43;50.12;101867.91;5037060;28;20025;-83
2022/07/30 06:30:59;;;;;;;9.23;1.70;;;;;;;24.98;48.40;101867.13;5034507;28;20139;-82
2022/07/30 06:33:24;;;;;;;5.70;1.58;;;;;;;25.53;46.76;101859.06;5034414;28;20057;-82
2022/07/30 06:35:50;;;;;;;4.60;1.30;;;;;;;25.91;45.94;101860.91;5026830;28;20025;-82
2022/07/30 06:38:15;;;;;;;5.38;1.40;;;;;;;26.34;44.56;101861.84;5034084;28;20071;-82
2022/07/30 06:40:40;;;;;;;5.25;1.48;;;;;;;26.92;43.09;101864.75;5034367;28;20031;-82
2022/07/30 06:43:06;;;;;;;2.70;1.23;;;;;;;27.12;41.76;101861.25;5034441;28;20049;-82
2022/07/30 06:45:31;;;;;;;4.18;1.58;;;;;;;27.56;40.40;101866.47;5024490;28;20048;-83
2022/07/30 06:47:57;;;;;;;3.78;1.50;;;;;;;27.55;40.01;101878.63;5033130;28;20021;-81
2022/07/30 06:50:23;;;;;;;5.20;1.20;;;;;;;27.50;40.33;101864.78;5036264;28;20587;-82
2022/07/30 06:52:48;;;;;;;4.63;1.38;;;;;;;27.84;39.18;101869.91;5039866;28;20410;-83
2022/07/30 06:55:14;;;;;;;4.30;1.30;;;;;;;27.85;39.42;101869.63;5043917;28;20022;-81
2022/07/30 06:57:39;;;;;;;4.07;1.40;;;;;;;28.19;38.24;101874.66;5035338;28;20053;-82
2022/07/30 07:00:06;;;;;;;5.63;1.70;;;;;;;28.61;38.69;101874.41;5035267;28;20029;-80
2022/07/30 07:02:32;;;;;;;6.22;1.30;;;;;;;28.61;38.26;101868.84;5035194;28;20029;-82
2022/07/30 07:04:58;;;;;;;3.40;1.33;;;;;;;28.20;38.19;101879.91;5036488;28;20039;-81
2022/07/30 07:07:23;;;;;;;8.05;1.40;;;;;;;28.07;38.22;101874.94;5039401;28;20128;-82
2022/07/30 07:09:49;;;;;;;3.05;1.25;;;;;;;27.85;38.80;101872.38;5041826;28;20021;-80
2022/07/30 07:12:14;;;;;;;7.40;1.50;;;;;;;28.04;38.71;101881.00;5037383;28;20036;-82
2022/07/30 07:14:39;;;;;;;3.40;1.13;;;;;;;27.95;38.76;101885.41;5035159;28;20033;-82
2022/07/30 07:17:04;;;;;;;4.60;1.17;;;;;;;27.96;39.04;101882.38;5040003;28;20029;-82
2022/07/30 07:19:30;;;;;;;7.43;1.45;;;;;;;28.45;37.55;101884.66;5037104;28;20097;-77
2022/07/30 07:21:55;;;;;;;6.60;1.27;;;;;;;28.36;38.43;101886.28;5039392;28;20432;-83
2022/07/30 07:24:21;;;;;;;3.53;1.35;;;;;;;28.98;37.02;101883.47;5042878;28;20030;-83
2022/07/30 07:26:46;;;;;;;7.38;1.50;;;;;;;29.01;36.22;101894.81;5037674;28;20025;-82
2022/07/30 07:29:11;;;;;;;3.03;1.20;;;;;;;29.24;36.63;101898.97;5033051;28;20037;-81
2022/07/30 07:31:37;;;;;;;4.90;1.20;;;;;;;29.58;35.27;101891.91;5033562;28;20086;-79
2022/07/30 07:34:02;;;;;;;6.47;1.43;;;;;;;30.18;34.47;101884.34;5019605;28;20073;-79
2022/07/30 07:36:29;;;;;;;7.37;1.40;;;;;;;30.54;33.67;101876.53;5032044;28;20030;-80
2022/07/30 07:38:54;;;;;;;;;;;;;;;30.51;34.09;101882.69;5032540;28;20052;-80
2022/07/30 07:41:20;;;;;;;5.83;1.60;;;;;;;30.64;32.97;101892.31;5023447;28;20392;-80
2022/07/30 07:43:45;;;;;;;4.57;1.57;;;;;;;30.54;33.61;101890.44;5033868;28;20041;-79
2022/07/30 07:46:15;;;;;;;4.50;1.23;;;;;;;30.11;33.32;101895.75;5030449;28;20040;-79
2022/07/30 07:48:40;;;;;;;4.32;1.05;;;;;;;30.59;32.80;101889.56;5032786;28;20038;-80
2022/07/30 07:51:06;;;;;;;4.30;1.57;;;;;;;30.92;31.59;101887.88;5013588;28;20026;-79
2022/07/30 07:53:31;;;;;;;4.33;1.77;;;;;;;30.70;31.19;101885.59;5028685;28;20032;-80
2022/07/30 07:55:57;;;;;;;5.07;1.43;;;;;;;31.02;31.27;101886.97;5032389;28;20381;-80
2022/07/30 07:58:22;;;;;;;5.03;1.40;;;;;;;30.48;31.45;101890.78;5032999;28;20373;-81
2022/07/30 08:00:48;;;;;;;5.57;1.50;;;;;;;30.99;32.03;101890.31;5024115;28;20021;-81
2022/07/30 08:03:13;;;;;;;6.07;1.27;;;;;;;31.17;30.18;101886.75;5031501;28;20029;-81
2022/07/30 08:05:39;;;;;;;4.67;1.40;;;;;;;31.32;30.59;101884.94;5033163;28;20025;-80
2022/07/30 08:08:04;;;;;;;6.40;1.43;;;;;;;31.52;30.40;101884.72;5029508;28;20390;-80
2022/07/30 08:10:29;;;;;;;2.57;1.40;;;;;;;31.59;29.94;101884.31;5031762;28;20104;-79
2022/07/30 08:12:55;;;;;;;4.07;1.30;;;;;;;31.88;28.78;101882.22;5032880;28;20404;-80
2022/07/30 08:15:21;;;;;;;4.73;1.20;;;;;;;31.82;28.89;101874.25;5031778;28;20041;-80
2022/07/30 08:17:46;;;;;;;5.70;1.30;;;;;;;32.09;29.04;101866.06;5032361;28;20022;-79
2022/07/30 08:20:13;;;;;;;5.70;1.57;;;;;;;32.44;28.67;101874.13;5031591;28;20025;-82
2022/07/30 08:22:38;;;;;;;6.88;1.63;;;;;;;32.44;28.65;101871.34;5037114;28;20386;-80
2022/07/30 08:25:04;;;;;;;4.40;1.53;;;;;;;32.51;28.13;101867.06;5031754;28;20485;-79
2022/07/30 08:27:30;;;;;;;5.07;1.52;;;;;;;32.20;28.96;101869.50;5030587;28;20049;-79
2022/07/30 08:29:55;;;;;;;6.23;1.70;;;;;;;32.49;28.43;101874.91;5030809;28;20069;-79
2022/07/30 08:32:20;;;;;;;4.20;1.33;;;;;;;32.75;26.55;101877.22;5031923;28;20025;-80
2022/07/30 08:34:46;;;;;;;5.67;1.37;;;;;;;32.51;27.95;101878.19;5031440;28;20500;-80
2022/07/30 08:37:11;;;;;;;7.47;1.57;;;;;;;32.92;27.72;101883.03;5030137;28;20037;-79
2022/07/30 08:39:37;;;;;;;6.07;1.17;;;;;;;32.78;27.69;101882.16;5031331;28;20107;-79
2022/07/30 08:42:03;;;;;;;5.93;1.90;;;;;;;32.90;27.40;101882.50;5030208;28;20034;-80
2022/07/30 08:44:29;;;;;;;;;;;;;;;32.52;27.79;101884.63;5031728;28;20040;-80
2022/07/30 08:46:55;;;;;;;6.15;1.60;;;;;;;32.69;28.22;101886.81;5032147;28;19913;-79
2022/07/30 08:49:22;;;;;;;7.10;1.63;;;;;;;33.11;27.08;101887.72;5032346;28;20112;-79
2022/07/30 08:51:48;;;;;;;;;;;;;;;33.06;26.60;101887.81;5032714;28;20026;-80
2022/07/30 08:54:13;;;;;;;3.92;1.50;;;;;;;33.19;26.38;101887.00;5030315;28;19920;-80
2022/07/30 08:56:40;;;;;;;6.37;1.50;;;;;;;33.14;25.78;101884.31;5029926;28;20029;-79
2022/07/30 08:59:06;;;;;;;5.70;1.70;;;;;;;32.27;27.45;101885.84;5030118;28;20029;-79
2022/07/30 09:01:31;;;;;;;4.93;1.43;;;;;;;32.44;27.73;101888.06;5030677;28;20353;-79
2022/07/30 09:03:57;;;;;;;3.17;1.40;;;;;;;32.87;26.82;101894.28;5031324;28;20505;-79
2022/07/30 09:06:22;;;;;;;3.50;1.13;;;;;;;33.04;27.43;101898.47;5030844;28;20029;-78
2022/07/30 09:08:48;;;;;;;6.33;1.80;;;;;;;33.21;26.34;101901.47;5031285;28;20036;-79
2022/07/30 09:11:13;;;;;;;6.70;1.90;;;;;;;33.36;25.62;101903.09;5029554;28;20022;-79
2022/07/30 09:13:43;;;;;;;6.87;1.50;;;;;;;33.58;25.28;101908.81;5029697;28;20120;-78
2022/07/30 09:16:23;;;;;;;8.38;1.58;;;;;;;33.14;26.38;101892.69;5013281;28;20112;-81
2022/07/30 09:18:50;;;;;;;9.02;1.63;;;;;;;33.15;26.27;101895.16;5029657;28;20492;-81
2022/07/30 09:21:15;;;;;;;5.47;1.50;;;;;;;32.98;27.13;101897.69;5030971;28;20468;-80
2022/07/30 09:23:53;;;;;;;3.07;1.20;;;;;;;33.04;26.77;101898.47;5031346;28;20029;-81
2022/07/30 09:26:18;;;;;;;5.22;1.50;;;;;;;33.42;26.03;101891.53;5030841;28;20075;-82
2022/07/30 09:28:44;;;;;;;6.53;1.40;;;;;;;33.63;26.28;101893.91;5032923;28;20033;-79
2022/07/30 09:31:09;;;;;;;8.00;1.40;;;;;;;33.17;26.54;101889.25;5032521;28;20025;-81
2022/07/30 09:33:39;;;;;;;5.10;1.60;;;;;;;32.72;27.08;101887.03;5033069;28;20053;-81
2022/07/30 09:36:09;;;;;;;6.97;2.00;;;;;;;32.54;26.89;101885.94;5031119;28;20171;-80
2022/07/30 09:38:50;;;;;;;7.95;1.83;;;;;;;32.42;27.58;101885.59;5031953;28;20067;-81
2022/07/30 09:41:34;;;;;;;4.07;1.50;;;;;;;32.02;28.21;101879.56;5031591;28;20079;-80
2022/07/30 09:44:03;;;;;;;6.50;1.92;;;;;;;32.53;27.77;101875.13;5041514;28;20022;-82
2022/07/30 09:46:41;;;;;;;5.57;1.33;;;;;;;32.72;26.97;101880.63;5048950;28;20018;-81
2022/07/30 09:49:17;;;;;;;5.68;1.60;;;;;;;32.72;27.41;101872.25;5041350;28;20507;-81
2022/07/30 09:51:43;;;;;;;7.40;1.58;;;;;;;32.51;28.03;101880.16;5030547;28;20037;-81
2022/07/30 09:54:08;;;;;;;5.47;1.47;;;;;;;32.50;27.21;101882.13;5032274;28;20025;-81
2022/07/30 09:56:33;;;;;;;10.30;1.70;;;;;;;32.65;27.20;101877.41;5032409;28;20105;-84
2022/07/30 09:58:59;;;;;;;10.33;1.60;;;;;;;32.72;26.75;101877.84;5031026;28;20044;-83
2022/07/30 10:01:24;;;;;;;7.37;1.60;;;;;;;32.72;26.85;101883.41;5032415;28;20025;-81
2022/07/30 10:03:50;;;;;;;6.47;1.70;;;;;;;32.58;27.26;101877.81;5032978;28;20100;-83
2022/07/30 10:06:15;;;;;;;7.73;1.73;;;;;;;32.24;27.56;101886.47;5034336;28;20040;-83
2022/07/30 10:08:46;;;;;;;5.17;1.97;;;;;;;31.66;27.77;101885.63;5030074;28;20381;-83
2022/07/30 10:11:16;;;;;;;6.25;1.90;;;;;;;31.18;29.17;101893.16;5030571;28;20021;-84
2022/07/30 10:13:44;;;;;;;7.15;1.48;;;;;;;30.79;28.98;101880.22;5032754;28;20030;-83
2022/07/30 10:16:09;;;;;;;5.63;2.00;;;;;;;30.86;29.01;101882.66;5034683;28;20076;-83
2022/07/30 10:18:35;;;;;;;6.30;1.50;;;;;;;30.48;29.98;101893.56;5033849;28;20033;-84
2022/07/30 10:21:02;;;;;;;5.13;1.67;;;;;;;30.10;29.98;101899.66;5034520;28;20157;-83
2022/07/30 10:23:28;;;;;;;7.40;1.88;;;;;;;30.15;31.01;101896.84;5015141;28;20030;-83
2022/07/30 10:25:59;;;;;;;4.73;1.70;;;;;;;29.96;30.33;101893.94;5035294;28;20678;-84
2022/07/30 10:28:25;;;;;;;8.55;1.90;;;;;;;29.85;31.32;101903.41;5018991;28;20036;-83
2022/07/30 10:30:54;;;;;;;6.20;1.75;;;;;;;29.50;31.69;101891.38;5034992;28;20026;-83
2022/07/30 10:33:28;;;;;;;4.43;1.38;;;;;;;29.34;31.71;101892.56;5034737;28;20044;-85
2022/07/30 10:35:56;;;;;;;8.85;1.60;;;;;;;29.04;31.74;101885.13;5033097;28;20119;-84
2022/07/30 10:38:28;;;;;;;7.60;1.50;;;;;;;28.55;32.80;101894.91;5015986;28;20547;-84
2022/07/30 10:41:00;;;;;;;4.35;1.60;;;;;;;27.92;33.25;101888.72;5036338;28;20027;-86
2022/07/30 10:43:34;;;;;;;6.35;1.70;;;;;;;27.40;34.49;101886.88;5033827;28;20389;-84
2022/07/30 10:46:17;;;;;;;6.50;1.73;;;;;;;27.67;34.43;101881.97;5033570;28;20022;-83
2022/07/30 10:48:43;;;;;;;6.85;1.67;;;;;;;27.78;33.53;101889.22;5024121;28;20084;-84
2022/07/30 10:51:08;;;;;;;6.60;1.70;;;;;;;27.98;33.82;101882.91;5019880;28;20095;-83
2022/07/30 10:53:39;;;;;;;8.50;1.80;;;;;;;27.95;34.61;101885.41;5033381;28;20013;-82
2022/07/30 10:56:23;;;;;;;5.50;1.83;;;;;;;27.71;33.27;101877.59;5033298;28;20064;-86
2022/07/30 10:59:07;;;;;;;8.23;2.10;;;;;;;27.14;34.92;101883.94;5014303;28;20086;-82
2022/07/30 11:01:45;;;;;;;4.20;1.63;;;;;;;27.07;34.83;101875.09;5020313;28;20113;-82
2022/07/30 11:04:24;;;;;;;8.27;2.00;;;;;;;26.86;35.39;101882.41;5034804;28;20354;-85
2022/07/30 11:06:50;;;;;;;8.70;2.10;;;;;;;26.72;35.55;101884.78;5032636;28;20405;-83
2022/07/30 11:09:34;;;;;;;6.38;1.80;;;;;;;26.87;36.94;101890.41;5033802;28;20124;-83
2022/07/30 11:11:59;;;;;;;7.28;1.77;;;;;;;26.87;36.88;101884.06;5034190;28;20099;-83
2022/07/30 11:14:44;;;;;;;4.30;1.67;;;;;;;26.79;36.69;101882.63;5031968;28;20057;-82
2022/07/30 11:17:14;;;;;;;5.28;1.80;;;;;;;26.76;37.14;101880.41;5045434;28;20064;-82
2022/07/30 11:20:05;;;;;;;9.00;1.95;;;;;;;26.58;37.72;101878.06;5033706;28;20477;-82
2022/07/30 11:22:37;;;;;;;6.40;2.05;;;;;;;26.58;37.96;101880.81;5033609;28;20033;-80
2022/07/30 11:25:04;;;;;;;6.63;1.70;;;;;;;26.15;38.82;101888.16;5033332;28;20312;-82
2022/07/30 11:27:35;;;;;;;8.52;1.80;;;;;;;26.16;38.89;101884.28;5015137;28;20494;-82